Arapahoe, Nebraska
Current Conditions -  °F | °C
As of 5:15 AM on Wednesday 26 Nov 2014 (Local Time) from KHDE Reporting Station
Scattered Clouds Scattered Clouds  
Wind Chill: 25°   Ceiling: Unl
Heat Index: 35°   Visibility: 10mi
Dew Point: 22°   Wind: 17mph
Humidity: 59%   Direction: 310°NW
Pressure: 30.01"   Gusts: 25mph
Location:  40.3°N, 99.9°W
Report Text: KHDE 261115Z AUTO 31015G22KT 10SM SCT050 02/M05 A3001 RMK AO2 T00171055
Loading
Personal Weather Stations






























Interactive Weather Map New forecast layout! Learn more

10-Day Weather Forecast

Advertisements
Track Severe Weather on mobile